Time;durP1;ratioP1;P1;durP2;ratioP2;P2;SDS_P1;SDS_P2;PMS_P1;PMS_P2;Temp;Humidity;BMP_temperature;BMP_pressure;BME280_temperature;BME280_humidity;BME280_pressure;Samples;Min_cycle;Max_cycle;Signal;HPM_P1;HPM_P2
2021/07/02 09:55:31;;;;;;;10.40;7.18;;;22.50;99.90;;;;;;12022280;28;20411;-58
2021/07/02 10:01:25;;;;;;;11.35;6.85;;;22.90;99.90;;;;;;11995415;28;20068;-58
2021/07/02 10:41:34;;;;;;;8.25;5.95;;;25.00;99.90;;;;;;14728861;22;1322891;-57
2021/07/02 10:47:22;;;;;;;8.98;6.10;;;25.20;99.90;;;;;;14778711;23;20024;-58
2021/07/02 11:00:11;;;;;;;7.85;5.75;;;25.70;99.90;;;;;;14802216;23;20425;-59
2021/07/02 11:05:58;;;;;;;7.25;5.97;;;26.00;98.70;;;;;;14802281;22;20546;-59
2021/07/02 11:12:10;;;;;;;6.75;5.93;;;26.30;96.50;;;;;;14802498;23;20029;-58
2021/07/02 11:18:18;;;;;;;8.27;5.88;;;26.40;95.80;;;;;;14802353;23;20020;-57
2021/07/02 11:24:05;;;;;;;9.82;5.47;;;26.20;93.60;;;;;;14789938;23;20029;-59
2021/07/02 11:29:54;;;;;;;10.10;6.15;;;26.20;92.40;;;;;;14786201;22;20099;-56
2021/07/02 11:35:43;;;;;;;9.63;6.18;;;26.20;93.40;;;;;;14783758;23;20091;-56
2021/07/02 11:41:33;;;;;;;8.43;6.10;;;26.20;94.40;;;;;;14754375;23;20025;-56
2021/07/02 11:47:20;;;;;;;7.90;5.70;;;26.20;93.80;;;;;;14752973;23;20029;-58
2021/07/02 11:53:08;;;;;;;6.57;5.88;;;26.30;92.50;;;;;;14754945;23;20020;-59
2021/07/02 11:58:58;;;;;;;8.75;5.90;;;26.30;92.60;;;;;;14754854;23;20028;-59
2021/07/02 12:04:45;;;;;;;6.78;5.25;;;26.40;93.30;;;;;;14777320;23;20112;-58
2021/07/02 12:10:33;;;;;;;7.13;5.85;;;26.60;93.00;;;;;;14786508;23;20107;-58
2021/07/02 12:16:20;;;;;;;6.15;4.80;;;26.90;92.50;;;;;;14785790;22;20024;-58
2021/07/02 12:22:11;;;;;;;5.55;5.03;;;27.20;90.90;;;;;;14785037;23;20107;-58
2021/07/02 12:28:02;;;;;;;6.82;5.35;;;27.30;88.00;;;;;;14783590;23;20075;-57
2021/07/02 12:33:50;;;;;;;5.75;4.70;;;27.30;87.50;;;;;;14779978;23;20100;-59
2021/07/02 13:06:59;;;;;;;7.57;4.85;;;27.30;84.70;;;;;;14391780;22;20099;-77
2021/07/02 13:13:13;;;;;;;8.07;5.18;;;27.50;83.20;;;;;;14806334;23;20338;-77
2021/07/02 13:19:00;;;;;;;6.18;5.18;;;27.60;82.10;;;;;;14801736;23;20027;-77
2021/07/02 13:24:48;;;;;;;5.38;4.88;;;27.80;83.30;;;;;;14805336;23;20029;-78
2021/07/02 13:30:36;;;;;;;8.48;5.28;;;28.00;82.80;;;;;;14762192;23;20035;-77
2021/07/02 13:36:41;;;;;;;6.20;5.13;;;28.20;79.50;;;;;;14824716;23;20027;-76
2021/07/02 13:42:30;;;;;;;15.13;9.70;;;28.20;76.70;;;;;;14801180;23;20139;-77
2021/07/02 13:48:17;;;;;;;11.75;5.35;;;28.40;79.00;;;;;;14832162;23;20115;-77
2021/07/02 13:54:09;;;;;;;5.47;4.45;;;28.60;76.20;;;;;;14813610;23;20031;-77
2021/07/02 13:59:57;;;;;;;5.00;4.50;;;28.90;75.60;;;;;;14775336;23;20476;-77
2021/07/02 14:05:44;;;;;;;5.63;4.57;;;28.80;72.40;;;;;;14777853;23;20036;-77
2021/07/02 14:11:31;;;;;;;5.00;4.22;;;28.50;72.40;;;;;;14763153;23;20476;-77
2021/07/02 14:17:19;;;;;;;5.28;4.57;;;28.30;75.30;;;;;;14764956;23;20035;-77
2021/07/02 14:23:06;;;;;;;6.97;4.22;;;28.10;77.10;;;;;;14763229;23;20020;-76
2021/07/02 14:28:54;;;;;;;6.35;4.20;;;28.10;75.40;;;;;;14762710;23;20037;-76
2021/07/02 14:34:42;;;;;;;5.80;4.43;;;28.20;73.90;;;;;;14764360;23;20481;-77
2021/07/02 14:40:29;;;;;;;6.13;4.38;;;28.40;75.20;;;;;;14761742;23;20496;-76
2021/07/02 14:46:16;;;;;;;5.97;3.70;;;28.50;74.00;;;;;;14760336;23;20432;-76
2021/07/02 14:52:05;;;;;;;4.70;3.78;;;28.60;70.10;;;;;;14753692;23;20024;-76
2021/07/02 14:57:52;;;;;;;4.95;3.55;;;28.70;70.20;;;;;;14762919;23;20047;-76
2021/07/02 15:03:39;;;;;;;4.65;3.03;;;29.00;69.40;;;;;;14765804;23;20036;-76
2021/07/02 15:09:27;;;;;;;3.65;3.35;;;29.40;68.70;;;;;;14763867;23;20024;-77
2021/07/02 15:15:14;;;;;;;4.88;3.40;;;29.80;68.00;;;;;;14768916;23;20139;-77
2021/07/02 15:21:01;;;;;;;4.03;3.63;;;29.90;67.40;;;;;;14762973;23;20034;-77
2021/07/02 15:26:49;;;;;;;4.07;3.67;;;29.80;65.20;;;;;;14768321;23;20033;-77
2021/07/02 15:32:36;;;;;;;4.10;3.70;;;29.60;66.80;;;;;;14781405;23;20035;-75
2021/07/02 15:38:24;;;;;;;4.13;3.72;;;29.90;66.00;;;;;;14790262;23;20024;-77
2021/07/02 15:44:12;;;;;;;4.55;3.13;;;30.20;64.70;;;;;;14765461;23;20032;-76
2021/07/02 15:49:59;;;;;;;5.43;3.70;;;29.80;64.30;;;;;;14768410;23;20115;-76
2021/07/02 15:55:46;;;;;;;4.72;3.95;;;29.40;66.90;;;;;;14805730;23;20034;-76
2021/07/02 16:01:34;;;;;;;7.10;3.88;;;29.50;65.70;;;;;;14768540;23;20024;-76
2021/07/02 16:07:21;;;;;;;5.63;3.55;;;29.90;65.80;;;;;;14766216;23;20028;-77
2021/07/02 16:13:08;;;;;;;3.63;3.30;;;31.40;64.50;;;;;;14766681;23;20111;-78
2021/07/02 16:18:56;;;;;;;8.80;3.70;;;34.10;56.90;;;;;;14767962;23;20035;-78
2021/07/02 16:24:43;;;;;;;5.30;2.83;;;35.90;53.30;;;;;;14766875;23;20059;-77
2021/07/02 16:30:31;;;;;;;3.67;2.92;;;36.90;50.70;;;;;;14765952;23;20118;-77
2021/07/02 16:36:19;;;;;;;3.83;2.92;;;36.70;49.50;;;;;;14788536;23;20028;-78
2021/07/02 16:42:06;;;;;;;4.47;3.50;;;35.40;49.50;;;;;;14815736;23;20028;-78
2021/07/02 16:47:53;;;;;;;4.07;3.45;;;35.80;51.50;;;;;;14767398;23;20031;-77
2021/07/02 16:53:42;;;;;;;5.47;4.00;;;36.40;48.70;;;;;;14803818;23;20051;-78
2021/07/02 16:59:28;;;;;;;4.65;3.95;;;35.30;52.00;;;;;;14763142;23;20079;-78
2021/07/02 17:05:15;;;;;;;4.50;4.10;;;35.00;51.80;;;;;;14765978;23;20026;-78
2021/07/02 17:11:03;;;;;;;5.22;4.18;;;34.50;54.20;;;;;;14753731;23;20029;-78
2021/07/02 17:16:50;;;;;;;5.40;4.40;;;34.20;52.80;;;;;;14763275;23;20364;-77
2021/07/02 17:22:37;;;;;;;6.80;4.63;;;32.70;55.40;;;;;;14761342;23;20028;-78
2021/07/02 17:28:26;;;;;;;5.18;4.60;;;31.50;57.70;;;;;;14767115;23;20033;-79
2021/07/02 17:34:13;;;;;;;4.82;4.18;;;30.60;60.30;;;;;;14766554;23;20579;-78
2021/07/02 17:40:00;;;;;;;5.78;4.78;;;30.10;63.50;;;;;;14763721;23;20032;-78
2021/07/02 17:45:48;;;;;;;5.63;4.82;;;29.90;64.90;;;;;;14753138;23;20043;-81
2021/07/02 17:51:35;;;;;;;7.40;5.00;;;29.70;65.50;;;;;;14800746;23;20358;-79
2021/07/02 17:57:22;;;;;;;9.40;4.82;;;29.60;70.40;;;;;;14802310;23;20358;-78
2021/07/02 18:03:10;;;;;;;8.57;5.10;;;29.60;72.60;;;;;;14763606;23;20155;-74
2021/07/02 18:08:57;;;;;;;9.68;5.10;;;29.40;74.50;;;;;;14761006;23;20056;-78
2021/07/02 18:14:44;;;;;;;13.02;4.90;;;29.20;75.90;;;;;;14763725;23;20039;-80
2021/07/02 18:20:32;;;;;;;6.70;5.40;;;28.90;75.60;;;;;;14762563;23;20079;-78
2021/07/02 18:26:19;;;;;;;7.70;4.93;;;28.50;76.70;;;;;;14764311;23;20032;-80
2021/07/02 18:32:07;;;;;;;7.22;4.60;;;28.20;78.50;;;;;;14756030;23;20027;-79
2021/07/02 18:37:56;;;;;;;8.02;4.95;;;28.00;78.90;;;;;;14762856;23;20155;-79
2021/07/02 18:43:43;;;;;;;6.70;4.90;;;27.80;80.20;;;;;;14803859;23;20024;-78
2021/07/02 18:49:31;;;;;;;7.07;5.18;;;27.60;81.10;;;;;;14767857;23;20032;-79
2021/07/02 18:55:19;;;;;;;8.45;5.43;;;27.40;81.40;;;;;;14838625;23;20039;-79
2021/07/02 19:01:06;;;;;;;9.63;5.20;;;27.20;83.50;;;;;;14803564;23;20024;-79
2021/07/02 19:06:53;;;;;;;14.82;5.28;;;27.10;85.20;;;;;;14810685;23;20038;-79
2021/07/02 19:12:43;;;;;;;7.72;4.78;;;27.00;85.30;;;;;;14831971;23;20115;-79
2021/07/02 19:18:31;;;;;;;7.25;4.88;;;26.80;84.00;;;;;;14841397;23;20490;-79
2021/07/02 19:24:20;;;;;;;6.70;4.65;;;26.60;84.80;;;;;;14780284;23;20025;-79
2021/07/02 19:30:12;;;;;;;9.85;5.72;;;26.40;85.70;;;;;;14785886;23;20024;-79
2021/07/02 19:35:59;;;;;;;7.18;5.13;;;26.40;85.70;;;;;;14819239;23;20028;-80
2021/07/02 19:41:46;;;;;;;8.27;5.30;;;26.30;86.20;;;;;;14767741;23;20078;-79
2021/07/02 19:47:34;;;;;;;8.10;5.50;;;26.20;87.00;;;;;;14803679;23;20111;-79
2021/07/02 19:53:21;;;;;;;12.48;6.53;;;26.20;86.60;;;;;;14766373;23;20050;-78
2021/07/02 19:59:08;;;;;;;9.23;6.15;;;26.00;86.70;;;;;;14812356;23;20093;-79
2021/07/02 20:04:58;;;;;;;7.75;5.35;;;26.00;87.90;;;;;;14834899;23;20461;-80
2021/07/02 20:10:45;;;;;;;9.35;6.35;;;25.90;87.00;;;;;;14763702;23;20543;-79
2021/07/02 20:16:32;;;;;;;9.43;6.35;;;25.80;88.20;;;;;;14764649;23;20470;-79
2021/07/02 20:22:20;;;;;;;9.70;6.22;;;25.70;87.20;;;;;;14802484;23;20016;-79
2021/07/02 20:28:07;;;;;;;8.80;6.10;;;25.70;88.20;;;;;;14801512;23;20040;-80
2021/07/02 20:33:54;;;;;;;7.88;6.22;;;25.70;88.70;;;;;;14765658;23;20032;-80
2021/07/02 20:39:42;;;;;;;10.88;6.47;;;25.60;88.60;;;;;;14828213;23;20043;-78
2021/07/02 20:45:29;;;;;;;10.82;6.82;;;25.50;89.60;;;;;;14836954;23;20429;-79
2021/07/02 20:51:16;;;;;;;14.10;7.30;;;25.50;89.90;;;;;;14778671;23;20032;-79
2021/07/02 20:57:04;;;;;;;12.45;6.70;;;25.40;90.40;;;;;;14750772;23;20039;-79
2021/07/02 21:02:51;;;;;;;12.77;6.97;;;25.30;90.80;;;;;;14779308;23;20476;-79
2021/07/02 21:08:38;;;;;;;11.85;7.30;;;25.20;91.00;;;;;;14824520;23;20024;-80
2021/07/02 21:14:27;;;;;;;10.18;7.03;;;25.20;90.90;;;;;;14802107;23;20139;-79
2021/07/02 21:20:14;;;;;;;12.57;6.95;;;25.20;91.00;;;;;;14810453;23;20026;-78
2021/07/02 21:26:01;;;;;;;12.10;7.55;;;25.30;91.30;;;;;;14837146;23;20027;-80
2021/07/02 21:31:50;;;;;;;19.90;7.70;;;25.20;91.60;;;;;;14796025;23;20115;-79
2021/07/02 21:37:37;;;;;;;16.67;7.43;;;25.20;92.00;;;;;;14764615;23;20838;-78
2021/07/02 21:43:24;;;;;;;9.52;7.20;;;25.20;92.40;;;;;;14766968;23;20032;-79
2021/07/02 21:49:12;;;;;;;12.75;7.00;;;25.10;92.50;;;;;;14763911;23;20060;-79
2021/07/02 21:54:59;;;;;;;19.98;7.32;;;25.00;92.80;;;;;;14764332;23;20103;-79
2021/07/02 22:00:46;;;;;;;10.70;6.85;;;24.90;92.90;;;;;;14764902;23;20035;-80
2021/07/02 22:06:35;;;;;;;10.25;7.20;;;24.80;93.30;;;;;;14764336;23;20025;-80
2021/07/02 22:12:23;;;;;;;8.48;6.57;;;24.80;93.80;;;;;;14802707;23;20028;-79
